Mill Rose Farm Restricted Landing Area

Jump to: basic info | weather | runways | comments

Related pages: nearby airports | nearby navaids | notams | map

Basic information (top)

Codes: IL68
Location: lon 42.077202, lat -88.159798, elev 850 ft / 259 m msl
Status: small_airport

Weather (top)

Current conditions for Dupage Airport 11nm (20km) SSW (rec'd 2014/10/23 08:52Z):

KDPA 230852Z 17004KT 7SM CLR 02/01 A3021 RMK AO2 SLP234 T00220011 58011

Airport forecast for Dupage Airport 11nm (20km) SSW (rec'd 2014/10/23 06:21Z):

TAF KDPA 230520Z 2306/2406 VRB03KT P6SM SCT250 
     FM231400 19011KT P6SM BKN200 
     FM232100 20008KT P6SM VCSH SCT035 OVC060 
     FM240100 24006KT P6SM BKN025 OVC040

Runways (top)

N/S: 2,500 x 100 ft (762 x 30 m) — grass — lighted

Latest comments (top)

No comments yet for Mill Rose Farm Restricted Landing Area

More... (top)

See also NOTAMs and nearby airports and navaids, or visit the Mill Rose Farm Restricted Landing Area page at the main OurAirports website..